Time;durP1;ratioP1;P1;durP2;ratioP2;P2;SDS_P1;SDS_P2;PMS_P1;PMS_P2;Temp;Humidity;BMP_temperature;BMP_pressure;BME280_temperature;BME280_humidity;BME280_pressure;Samples;Min_cycle;Max_cycle;Signal;HPM_P1;HPM_P2
2022/01/28 00:13:30;;;;;;;11.93;6.67;;;;;;;3.58;85.79;99340.75;2784412;100;21166;-74
2022/01/28 00:38:53;;;;;;;7.17;4.95;;;;;;;3.68;85.03;99345.66;2775687;101;21060;-75
2022/01/28 00:43:44;;;;;;;9.45;4.55;;;;;;;3.70;84.90;99350.03;2829571;97;21235;-74
2022/01/28 00:48:35;;;;;;;7.37;4.55;;;;;;;3.70;84.61;99332.03;2976691;87;21629;-73
2022/01/28 00:53:26;;;;;;;8.90;4.97;;;;;;;3.72;84.34;99332.93;3160325;86;27564;-73
2022/01/28 00:58:17;;;;;;;13.18;4.87;;;;;;;3.71;84.25;99319.61;3201112;87;21035;-74
2022/01/28 01:03:08;;;;;;;6.55;3.77;;;;;;;3.70;84.00;99325.61;3185080;87;21781;-73
2022/01/28 01:08:04;;;;;;;5.50;3.95;;;;;;;3.70;83.57;99308.89;3185470;87;21654;-74
2022/01/28 01:12:55;;;;;;;6.45;4.40;;;;;;;3.70;83.62;99306.33;3223157;87;21034;-74
2022/01/28 01:22:51;;;;;;;5.58;2.90;;;;;;;3.63;83.43;99295.03;3170639;87;20995;-74
2022/01/28 01:27:36;;;;;;;6.33;3.35;;;;;;;3.62;83.16;99283.42;3236303;86;22116;-74
2022/01/28 01:32:27;;;;;;;7.90;2.87;;;;;;;3.60;83.31;99265.83;3254530;85;25695;-75
2022/01/28 01:37:19;;;;;;;6.75;3.47;;;;;;;3.57;82.74;99281.17;3279181;86;20994;-75
2022/01/28 01:42:29;;;;;;;8.60;2.77;;;;;;;3.54;82.66;99273.38;3260669;85;21030;-76
2022/01/28 01:52:26;;;;;;;6.10;2.20;;;;;;;3.51;82.30;99243.36;3336970;83;20975;-75
2022/01/28 01:57:17;;;;;;;4.05;2.33;;;;;;;3.48;82.19;99232.15;3280663;83;20990;-75
2022/01/28 02:02:10;;;;;;;4.53;2.33;;;;;;;3.47;82.14;99226.15;3333827;83;21257;-74
2022/01/28 02:07:02;;;;;;;3.40;2.12;;;;;;;3.43;82.12;99223.04;3360373;83;21478;-74
2022/01/28 02:11:53;;;;;;;4.65;2.05;;;;;;;3.40;81.92;99217.44;3322374;83;20948;-73
2022/01/28 02:16:44;;;;;;;4.33;2.08;;;;;;;3.41;82.06;99211.44;3276489;83;21647;-73
2022/01/28 02:21:43;;;;;;;3.62;2.25;;;;;;;3.40;81.78;99199.45;3319202;83;21014;-75
2022/01/28 02:26:31;;;;;;;3.47;1.92;;;;;;;3.39;81.75;99184.84;3341177;83;20971;-75
2022/01/28 02:31:25;;;;;;;5.45;2.05;;;;;;;3.38;82.14;99184.81;3384628;83;20946;-75
2022/01/28 02:36:15;;;;;;;4.33;2.20;;;;;;;3.30;82.41;99179.52;3337286;83;20919;-74
2022/01/28 02:41:07;;;;;;;5.58;2.33;;;;;;;3.26;82.58;99170.02;3362329;83;21002;-74
2022/01/28 02:46:12;;;;;;;5.72;2.42;;;;;;;3.21;82.78;99169.05;3336689;83;22108;-75
2022/01/28 02:55:57;;;;;;;6.92;2.75;;;;;;;3.11;83.28;99164.11;3334445;83;27666;-74
2022/01/28 03:00:46;;;;;;;3.12;2.08;;;;;;;3.04;83.41;99160.56;3306749;83;21038;-75
2022/01/28 03:05:37;;;;;;;6.28;2.10;;;;;;;2.97;83.97;99150.11;3322095;83;20987;-74
2022/01/28 03:10:48;;;;;;;5.60;2.08;;;;;;;2.91;84.09;99152.12;3339399;83;24889;-74
2022/01/28 03:15:38;;;;;;;6.15;2.52;;;;;;;2.86;84.56;99154.61;3359716;83;20954;-74
2022/01/28 03:20:37;;;;;;;3.80;1.72;;;;;;;2.80;84.71;99142.89;3331889;83;21514;-74
2022/01/28 03:25:21;;;;;;;3.17;1.75;;;;;;;2.78;84.94;99142.42;3355615;83;20998;-75
2022/01/28 03:30:12;;;;;;;7.35;3.80;;;;;;;2.70;85.12;99133.27;3296804;83;21310;-75
2022/01/28 03:35:05;;;;;;;2.90;1.50;;;;;;;2.70;85.25;99118.27;3345032;83;21468;-75
2022/01/28 03:39:56;;;;;;;4.75;2.47;;;;;;;2.67;85.39;99135.33;3298492;83;20966;-75
2022/01/28 03:44:47;;;;;;;4.08;2.20;;;;;;;2.69;85.54;99113.98;3304827;83;20959;-73
2022/01/28 03:49:38;;;;;;;5.20;2.47;;;;;;;2.66;85.72;99115.66;3297883;83;21112;-75
2022/01/28 03:54:28;;;;;;;4.10;2.33;;;;;;;2.64;85.76;99127.55;3347207;83;20983;-75
2022/01/28 03:59:19;;;;;;;6.05;2.33;;;;;;;2.62;85.90;99121.52;3320316;83;21129;-73
2022/01/28 04:19:20;;;;;;;4.70;2.00;;;;;;;2.54;86.48;99110.23;3313003;83;20970;-74
2022/01/28 04:24:12;;;;;;;5.50;2.47;;;;;;;2.52;86.64;99122.13;3313625;83;21125;-74
2022/01/28 04:29:03;;;;;;;6.53;2.65;;;;;;;2.52;86.73;99115.72;3323353;83;20935;-74
2022/01/28 04:33:55;;;;;;;3.08;1.90;;;;;;;2.49;86.96;99118.23;3336377;83;21406;-74
2022/01/28 04:38:54;;;;;;;2.75;2.30;;;;;;;2.48;86.85;99117.77;3320068;83;21486;-73
2022/01/28 04:43:48;;;;;;;1.85;1.45;;;;;;;2.47;87.02;99122.47;3323418;83;20993;-74
2022/01/28 05:14:05;;;;;;;7.50;3.80;;;;;;;2.37;87.62;99143.59;3350233;83;21544;-74
2022/01/28 05:24:18;;;;;;;3.52;2.40;;;;;;;2.34;87.67;99136.67;3325405;83;21951;-74
2022/01/28 05:28:36;;;;;;;5.08;2.55;;;;;;;2.35;87.71;99143.97;3296361;83;20968;-73
2022/01/28 05:33:27;;;;;;;2.60;2.05;;;;;;;2.36;87.98;99143.12;3318698;83;21437;-73
2022/01/28 05:38:18;;;;;;;3.65;2.02;;;;;;;2.39;88.09;99142.78;3297340;83;21777;-74
2022/01/28 05:43:09;;;;;;;2.30;1.98;;;;;;;2.43;88.04;99156.55;3319754;83;20938;-73
2022/01/28 05:48:00;;;;;;;2.45;2.10;;;;;;;2.45;88.05;99163.86;3339046;83;20979;-74
2022/01/28 05:52:52;;;;;;;2.75;2.00;;;;;;;2.47;88.22;99169.93;3378547;83;21022;-75
2022/01/28 05:57:43;;;;;;;2.52;1.87;;;;;;;2.49;88.28;99172.11;3334500;83;21592;-74
2022/01/28 06:02:33;;;;;;;6.40;2.30;;;;;;;2.52;88.37;99179.86;3344652;83;20979;-75
2022/01/28 06:07:24;;;;;;;4.10;1.90;;;;;;;2.57;88.60;99189.83;3343610;83;27240;-74
2022/01/28 06:12:15;;;;;;;5.35;2.20;;;;;;;2.61;88.59;99192.94;3365395;83;20978;-74
2022/01/28 06:17:06;;;;;;;2.15;1.22;;;;;;;2.65;88.58;99201.16;3316509;83;21169;-75
2022/01/28 06:21:57;;;;;;;1.98;1.57;;;;;;;2.66;88.72;99196.49;3277230;83;21539;-75
2022/01/28 06:26:48;;;;;;;2.65;2.10;;;;;;;2.71;88.63;99211.13;3268529;83;20951;-74
2022/01/28 06:31:41;;;;;;;1.77;1.62;;;;;;;2.73;88.66;99221.87;3363506;83;21009;-73
2022/01/28 06:36:32;;;;;;;3.83;2.15;;;;;;;2.74;88.68;99219.77;3232156;86;21033;-73
2022/01/28 06:41:23;;;;;;;2.15;1.77;;;;;;;2.77;88.66;99217.67;3296383;86;21070;-73
2022/01/28 06:46:14;;;;;;;4.25;1.85;;;;;;;2.78;88.66;99232.27;3243801;86;21091;-72
2022/01/28 06:51:05;;;;;;;3.08;1.90;;;;;;;2.80;88.62;99243.42;3218085;85;21264;-74
2022/01/28 06:55:56;;;;;;;3.70;1.85;;;;;;;2.81;88.60;99232.34;3225608;86;20947;-73
2022/01/28 07:00:47;;;;;;;2.50;2.15;;;;;;;2.83;88.55;99251.21;3225868;85;20995;-73
2022/01/28 07:05:39;;;;;;;3.85;2.27;;;;;;;2.84;88.52;99246.52;3233625;86;21004;-74
2022/01/28 07:10:31;;;;;;;3.45;1.92;;;;;;;2.84;88.50;99259.34;3276791;85;21003;-73
2022/01/28 07:15:25;;;;;;;3.55;2.25;;;;;;;2.87;88.53;99272.27;3262900;86;20983;-73
2022/01/28 07:20:17;;;;;;;4.00;2.47;;;;;;;2.89;88.54;99281.30;3287743;86;21144;-73
2022/01/28 07:25:09;;;;;;;5.33;2.90;;;;;;;2.88;88.59;99275.69;3301864;86;21245;-73
2022/01/28 07:30:00;;;;;;;7.67;3.50;;;;;;;2.88;88.75;99280.44;3244431;86;21038;-74
2022/01/28 07:34:51;;;;;;;5.00;2.98;;;;;;;2.87;88.73;99297.94;3244186;86;21475;-73
2022/01/28 07:39:43;;;;;;;6.90;3.60;;;;;;;2.89;89.06;99299.27;3285392;86;20975;-73
2022/01/28 07:44:34;;;;;;;2.12;1.70;;;;;;;2.89;88.68;99307.83;3254536;86;26577;-73
2022/01/28 07:49:24;;;;;;;3.15;2.05;;;;;;;2.91;88.73;99333.55;3233970;85;20986;-74
2022/01/28 07:54:15;;;;;;;2.12;1.45;;;;;;;2.93;88.55;99339.58;3263740;85;21102;-73
2022/01/28 07:59:06;;;;;;;2.90;1.65;;;;;;;2.94;88.45;99342.62;3216484;86;21742;-74
2022/01/28 08:03:57;;;;;;;3.20;1.47;;;;;;;2.98;88.41;99348.28;3231882;86;21023;-74
2022/01/28 08:08:48;;;;;;;2.15;1.37;;;;;;;3.00;88.24;99359.45;3267356;86;21629;-71
2022/01/28 08:13:39;;;;;;;4.30;2.37;;;;;;;3.09;88.12;99379.36;3249755;86;20982;-73
2022/01/28 08:18:30;;;;;;;3.98;1.67;;;;;;;3.11;87.80;99375.13;3213632;86;21229;-74
2022/01/28 08:23:21;;;;;;;2.10;0.93;;;;;;;3.05;87.84;99393.40;3207708;86;21067;-74
2022/01/28 08:28:12;;;;;;;1.92;1.12;;;;;;;3.10;87.83;99399.09;3195942;86;20987;-71
2022/01/28 08:33:04;;;;;;;1.30;1.20;;;;;;;3.13;87.78;99410.31;3261487;86;27115;-73
2022/01/28 08:37:57;;;;;;;1.72;1.00;;;;;;;3.14;87.61;99426.58;3201051;86;21249;-74
2022/01/28 08:42:48;;;;;;;2.37;1.10;;;;;;;3.13;87.54;99448.84;3218371;86;21590;-75
2022/01/28 08:47:39;;;;;;;1.72;0.95;;;;;;;3.14;87.58;99447.13;3237372;86;22206;-75
2022/01/28 08:52:30;;;;;;;1.50;1.12;;;;;;;3.17;87.46;99462.63;3262367;86;21004;-74
2022/01/28 08:57:21;;;;;;;2.58;1.35;;;;;;;3.19;87.36;99478.95;3280239;86;20979;-72
2022/01/28 09:02:12;;;;;;;1.98;1.60;;;;;;;3.23;87.42;99493.61;3244605;86;21070;-73
2022/01/28 09:07:04;;;;;;;3.33;2.00;;;;;;;3.18;87.13;99518.30;3206630;86;21018;-75
2022/01/28 09:16:49;;;;;;;2.25;1.50;;;;;;;3.15;87.22;99531.05;3229199;86;21006;-72
2022/01/28 09:21:40;;;;;;;1.22;1.12;;;;;;;3.15;87.08;99552.88;3230834;86;21121;-73
2022/01/28 09:26:31;;;;;;;2.37;1.77;;;;;;;3.11;87.05;99552.34;3258568;86;21097;-72
2022/01/28 09:31:22;;;;;;;2.00;1.80;;;;;;;3.11;87.10;99570.32;3207007;86;20965;-73
2022/01/28 09:36:13;;;;;;;1.50;1.40;;;;;;;3.10;86.95;99589.14;3233233;86;21009;-73
2022/01/28 09:41:08;;;;;;;2.58;2.27;;;;;;;3.12;87.13;99586.20;3284676;85;21459;-73
2022/01/28 09:45:59;;;;;;;2.25;1.67;;;;;;;3.09;87.00;99611.36;3317297;85;20939;-73
2022/01/28 09:50:52;;;;;;;3.20;2.37;;;;;;;3.07;86.79;99621.15;3291940;85;21231;-73
2022/01/28 09:55:47;;;;;;;2.02;1.80;;;;;;;3.07;86.96;99632.28;3282824;85;20962;-72
2022/01/28 10:00:38;;;;;;;2.17;1.85;;;;;;;3.10;86.79;99656.78;3262567;85;20970;-73
2022/01/28 10:05:36;;;;;;;2.33;1.70;;;;;;;3.15;86.84;99656.91;3234533;86;21012;-75
2022/01/28 10:10:50;;;;;;;2.47;2.27;;;;;;;3.16;86.72;99679.20;3315864;85;20986;-75
2022/01/28 10:16:06;;;;;;;2.62;2.30;;;;;;;3.14;86.84;99687.28;3249532;86;21032;-73
2022/01/28 10:20:57;;;;;;;2.40;2.10;;;;;;;3.12;86.65;99690.22;3283383;86;20966;-78
2022/01/28 10:25:56;;;;;;;2.20;2.00;;;;;;;3.07;86.60;99700.77;3235693;85;21684;-76
2022/01/28 10:30:43;;;;;;;2.40;1.85;;;;;;;3.03;86.65;99717.35;3234459;85;20973;-73
2022/01/28 10:35:34;;;;;;;1.65;1.42;;;;;;;3.07;86.55;99731.58;3212618;85;21037;-72
2022/01/28 10:40:25;;;;;;;1.65;1.07;;;;;;;3.11;86.17;99747.54;3236422;85;21095;-71
2022/01/28 10:45:20;;;;;;;2.33;1.40;;;;;;;3.10;85.78;99757.37;3246324;85;21454;-78
2022/01/28 10:50:31;;;;;;;2.30;1.72;;;;;;;3.07;86.25;99763.69;3231725;85;21096;-74
2022/01/28 10:55:22;;;;;;;2.42;1.70;;;;;;;3.08;86.01;99773.12;3259168;85;20965;-74
2022/01/28 11:00:15;;;;;;;2.62;1.82;;;;;;;3.12;85.80;99772.41;3241337;85;21602;-73
2022/01/28 11:05:07;;;;;;;1.50;1.40;;;;;;;3.18;85.74;99798.28;3265755;85;21780;-73
2022/01/28 11:10:00;;;;;;;2.20;1.80;;;;;;;3.27;85.44;99804.98;3229121;85;20984;-73
2022/01/28 11:14:51;;;;;;;1.85;1.10;;;;;;;3.25;85.20;99806.64;3257562;85;21065;-72
2022/01/28 11:19:45;;;;;;;5.42;1.40;;;;;;;3.44;84.65;99828.24;3250735;85;21530;-73
2022/01/28 11:25:16;;;;;;;3.08;1.10;;;;;;;3.53;84.49;99837.08;3222440;85;20982;-72
2022/01/28 11:30:28;;;;;;;1.72;1.22;;;;;;;3.47;84.10;99847.16;3255849;86;22104;-71
2022/01/28 11:35:21;;;;;;;1.55;1.30;;;;;;;3.33;84.02;99857.88;3234781;85;21431;-73
2022/01/28 11:40:15;;;;;;;5.47;1.85;;;;;;;3.39;83.84;99861.91;3241754;85;20934;-74
2022/01/28 11:45:10;;;;;;;3.83;2.20;;;;;;;3.33;83.67;99877.14;3210930;88;21067;-74
2022/01/28 11:50:11;;;;;;;3.30;1.55;;;;;;;3.33;83.60;99881.00;3189989;86;20982;-73
2022/01/28 11:55:26;;;;;;;4.12;2.35;;;;;;;3.42;83.72;99889.00;3204849;86;21208;-73
2022/01/28 12:00:36;;;;;;;1.72;1.62;;;;;;;3.46;83.40;99917.38;3247207;86;20905;-75
2022/01/28 12:05:38;;;;;;;2.87;1.40;;;;;;;3.67;83.37;99897.51;3262158;86;21043;-76
2022/01/28 12:10:33;;;;;;;2.60;1.42;;;;;;;3.79;82.56;99885.42;3286525;85;20908;-73
2022/01/28 12:15:28;;;;;;;3.10;1.67;;;;;;;3.69;82.66;99925.84;3190943;86;20951;-74
2022/01/28 12:20:24;;;;;;;2.90;1.57;;;;;;;3.56;82.79;99933.55;3260139;86;21445;-74
2022/01/28 12:25:39;;;;;;;3.05;2.08;;;;;;;3.50;82.54;99944.92;3266103;86;20991;-73
2022/01/28 12:30:35;;;;;;;2.58;2.15;;;;;;;3.44;83.01;99955.87;3300727;85;20963;-74
2022/01/28 12:35:27;;;;;;;1.92;1.20;;;;;;;3.42;83.30;99973.81;3267418;85;21535;-73
2022/01/28 12:40:24;;;;;;;1.85;1.50;;;;;;;3.38;82.25;99973.25;3280689;85;21370;-74
2022/01/28 12:45:11;;;;;;;2.27;1.50;;;;;;;3.30;82.62;99982.38;3293541;85;22774;-74
2022/01/28 12:50:03;;;;;;;2.12;1.67;;;;;;;3.30;82.60;99988.80;3320754;85;21559;-74
2022/01/28 12:54:54;;;;;;;3.85;1.90;;;;;;;3.30;82.03;99988.80;3291219;85;21256;-74
2022/01/28 12:59:47;;;;;;;2.30;1.50;;;;;;;3.42;82.52;99994.37;3265344;85;24848;-74
2022/01/28 13:04:57;;;;;;;3.00;1.70;;;;;;;3.52;81.50;100007.53;3265886;85;20958;-74
2022/01/28 13:09:47;;;;;;;1.72;1.35;;;;;;;3.68;81.25;100014.93;3281047;85;22082;-74
2022/01/28 13:14:39;;;;;;;2.25;1.42;;;;;;;3.72;80.40;100037.37;3266698;85;21021;-73
2022/01/28 13:19:30;;;;;;;6.67;2.00;;;;;;;3.79;80.18;100030.71;3306293;85;20975;-74
2022/01/28 13:24:25;;;;;;;3.83;2.05;;;;;;;3.73;80.21;100044.24;3227321;85;20964;-80
2022/01/28 13:29:16;;;;;;;2.10;1.40;;;;;;;3.65;80.50;100058.94;3190908;86;21079;-73
2022/01/28 13:34:10;;;;;;;3.62;2.52;;;;;;;3.53;80.22;100065.84;3269425;86;21014;-74
2022/01/28 13:39:14;;;;;;;1.98;1.30;;;;;;;3.44;80.06;100087.81;3247636;86;21243;-72
2022/01/28 13:44:21;;;;;;;2.15;1.95;;;;;;;3.46;80.21;100093.43;3228260;86;20994;-72
2022/01/28 13:49:14;;;;;;;;;;;;;;;3.38;80.24;100108.16;3239305;86;21477;-73
2022/01/28 13:58:56;;;;;;;1.77;1.07;;;;;;;3.15;80.19;100130.45;3251079;86;21708;-74
2022/01/28 14:03:57;;;;;;;3.40;1.82;;;;;;;3.11;80.85;100143.10;3223946;86;21828;-72
2022/01/28 14:08:53;;;;;;;4.97;3.27;;;;;;;3.07;80.87;100157.52;3231042;86;20970;-73
2022/01/28 14:13:44;;;;;;;3.35;1.87;;;;;;;3.10;81.07;100152.93;3217820;86;21476;-71
2022/01/28 14:18:35;;;;;;;4.03;2.02;;;;;;;3.13;80.65;100163.30;3200755;86;21006;-72
2022/01/28 14:23:27;;;;;;;1.80;1.20;;;;;;;3.09;80.50;100183.27;3268436;86;27534;-72
2022/01/28 14:33:10;;;;;;;2.10;1.37;;;;;;;3.05;80.22;100224.23;3257612;83;22402;-73
2022/01/28 14:38:04;;;;;;;1.22;0.98;;;;;;;3.01;79.92;100215.95;3290444;85;21504;-73
2022/01/28 14:42:55;;;;;;;2.42;1.20;;;;;;;2.99;79.91;100224.02;3241426;86;20970;-72
2022/01/28 14:47:46;;;;;;;2.85;1.20;;;;;;;2.98;80.07;100235.09;3242489;86;20961;-73
2022/01/28 14:52:37;;;;;;;6.08;2.80;;;;;;;2.96;79.69;100243.14;3238192;86;21017;-74
2022/01/28 14:57:28;;;;;;;4.42;2.00;;;;;;;2.97;79.83;100264.17;3345578;83;21003;-73
2022/01/28 15:02:24;;;;;;;4.92;2.12;;;;;;;2.94;79.37;100274.31;3332623;83;20900;-76
2022/01/28 15:07:16;;;;;;;4.17;2.20;;;;;;;2.91;79.59;100284.45;3319989;83;20935;-72
2022/01/28 15:12:09;;;;;;;4.10;2.83;;;;;;;2.89;79.45;100297.64;3324803;83;21034;-73
2022/01/28 15:17:01;;;;;;;1.92;1.20;;;;;;;2.85;79.48;100299.20;3274507;83;20967;-73
2022/01/28 15:21:53;;;;;;;3.50;1.20;;;;;;;2.84;79.70;100320.96;3301982;83;20935;-72
2022/01/28 15:26:44;;;;;;;4.47;2.35;;;;;;;2.82;79.62;100321.31;3338400;83;21456;-72
2022/01/28 15:36:48;;;;;;;2.25;1.20;;;;;;;2.79;78.72;100353.27;3343574;83;21535;-74
2022/01/28 15:41:39;;;;;;;2.17;1.50;;;;;;;2.79;78.98;100378.94;3303659;83;20978;-73
2022/01/28 15:46:30;;;;;;;5.03;2.95;;;;;;;2.78;78.77;100374.64;3347206;83;21011;-74
2022/01/28 15:51:21;;;;;;;2.85;1.35;;;;;;;2.77;78.99;100384.42;3355235;83;21186;-73
2022/01/28 15:56:15;;;;;;;3.70;1.45;;;;;;;2.75;79.04;100396.32;3330796;83;21101;-75
2022/01/28 16:01:05;;;;;;;2.95;1.67;;;;;;;2.72;78.88;100409.02;3349571;83;22809;-73
2022/01/28 16:05:58;;;;;;;7.00;4.92;;;;;;;2.66;78.73;100422.08;3298561;83;28377;-74
2022/01/28 16:20:50;;;;;;;5.47;2.40;;;;;;;2.33;77.99;100443.67;3324233;83;27123;-74
2022/01/28 16:25:41;;;;;;;4.87;2.20;;;;;;;2.20;78.49;100455.92;3358703;83;21371;-73
2022/01/28 16:30:33;;;;;;;4.65;2.45;;;;;;;2.14;78.49;100453.05;3305044;83;22137;-73
2022/01/28 16:35:24;;;;;;;4.20;1.62;;;;;;;2.07;78.68;100459.58;3385776;83;21823;-78
2022/01/28 16:40:17;;;;;;;2.80;1.47;;;;;;;2.01;78.52;100468.69;3337168;83;20962;-74
2022/01/28 16:45:12;;;;;;;3.65;1.65;;;;;;;1.92;78.39;100468.26;3333998;83;20939;-82
2022/01/28 16:50:05;;;;;;;6.17;2.98;;;;;;;1.86;78.35;100476.51;3317263;83;22063;-79
2022/01/28 16:54:59;;;;;;;5.40;2.77;;;;;;;1.82;78.51;100478.05;3358298;83;20951;-79
2022/01/28 16:59:49;;;;;;;5.92;2.15;;;;;;;1.82;78.43;100498.97;3341464;83;20924;-74
2022/01/28 17:04:41;;;;;;;3.45;1.80;;;;;;;1.85;78.07;100510.25;3344561;83;20935;-73
2022/01/28 17:09:45;;;;;;;7.50;2.70;;;;;;;1.83;78.00;100524.68;3368168;83;21459;-72
2022/01/28 17:14:25;;;;;;;6.72;1.98;;;;;;;1.83;77.76;100540.06;3342029;83;21519;-73
2022/01/28 17:19:16;;;;;;;2.08;1.27;;;;;;;1.80;77.78;100536.06;3361164;83;28841;-73
2022/01/28 17:24:08;;;;;;;3.05;1.65;;;;;;;1.80;77.87;100548.00;3335633;83;21295;-73
2022/01/28 17:28:58;;;;;;;2.60;1.60;;;;;;;1.80;78.02;100550.16;3339982;83;21002;-73
2022/01/28 17:33:49;;;;;;;4.28;2.00;;;;;;;1.82;78.14;100539.57;3365591;83;20967;-73
2022/01/28 17:38:40;;;;;;;3.30;1.98;;;;;;;1.79;78.05;100557.39;3335297;83;21826;-74
2022/01/28 17:43:32;;;;;;;3.42;2.00;;;;;;;1.79;78.15;100572.77;3373477;83;21051;-74
2022/01/28 17:48:23;;;;;;;2.58;2.15;;;;;;;1.80;78.37;100588.61;3337564;83;20962;-73
2022/01/28 17:53:15;;;;;;;2.90;1.80;;;;;;;1.83;78.45;100587.49;3315164;83;21514;-74
2022/01/28 17:58:06;;;;;;;3.42;2.00;;;;;;;1.83;78.23;100590.05;3387608;83;21117;-73
2022/01/28 18:03:00;;;;;;;6.10;3.83;;;;;;;1.84;78.11;100589.27;3342963;83;21035;-74
2022/01/28 18:07:51;;;;;;;3.80;1.80;;;;;;;1.85;78.58;100608.95;3349203;83;20959;-72
2022/01/28 18:12:43;;;;;;;4.70;3.30;;;;;;;1.86;78.47;100635.47;3367948;83;21631;-74
2022/01/28 18:17:35;;;;;;;4.60;3.05;;;;;;;1.86;78.48;100633.80;3326769;83;21469;-73
2022/01/28 18:22:25;;;;;;;2.50;2.27;;;;;;;1.87;78.30;100645.80;3340643;83;21421;-73
2022/01/28 18:27:17;;;;;;;4.25;3.42;;;;;;;1.86;78.59;100662.01;3331584;83;27176;-75
2022/01/28 18:32:09;;;;;;;5.30;2.70;;;;;;;1.87;78.75;100667.59;3311675;83;21034;-73
2022/01/28 18:37:00;;;;;;;4.08;2.42;;;;;;;1.86;78.63;100671.36;3355006;83;20968;-73
2022/01/28 18:41:53;;;;;;;4.08;3.20;;;;;;;1.84;78.81;100680.28;3363066;83;20995;-73
2022/01/28 18:47:03;;;;;;;5.87;2.60;;;;;;;1.85;78.84;100678.18;3390985;83;21032;-72
2022/01/28 18:51:45;;;;;;;6.55;2.70;;;;;;;1.85;78.79;100689.72;3381779;83;21220;-73
2022/01/28 18:56:36;;;;;;;6.47;3.77;;;;;;;1.86;79.02;100704.31;3338992;83;21249;-73
2022/01/28 19:01:27;;;;;;;5.10;2.92;;;;;;;1.86;78.99;100709.81;3335568;83;21475;-73
2022/01/28 19:06:18;;;;;;;4.37;2.98;;;;;;;1.86;78.93;100718.41;3329176;83;21595;-73
2022/01/28 19:11:09;;;;;;;5.22;2.75;;;;;;;1.85;79.05;100720.48;3292512;83;20983;-72
2022/01/28 19:16:02;;;;;;;5.62;3.40;;;;;;;1.83;78.96;100724.66;3314177;83;21029;-74
2022/01/28 19:20:53;;;;;;;5.90;3.30;;;;;;;1.84;78.91;100736.69;3317882;83;20938;-73
2022/01/28 19:25:44;;;;;;;4.92;2.80;;;;;;;1.85;79.04;100757.66;3294941;83;20887;-72
2022/01/28 19:30:36;;;;;;;2.85;2.60;;;;;;;1.84;79.04;100746.94;3317217;83;20994;-73
2022/01/28 19:35:27;;;;;;;3.47;2.67;;;;;;;1.85;79.12;100767.05;3275074;83;20991;-74
2022/01/28 19:40:21;;;;;;;6.22;3.30;;;;;;;1.84;79.00;100766.55;3329731;83;21105;-74
2022/01/28 19:45:16;;;;;;;4.55;2.98;;;;;;;1.82;79.13;100780.56;3346287;83;20979;-73
2022/01/28 19:50:12;;;;;;;5.72;2.80;;;;;;;1.81;79.24;100783.95;3269018;83;20986;-72
2022/01/28 19:55:01;;;;;;;10.68;4.78;;;;;;;1.80;79.07;100787.30;3274476;83;21285;-74
2022/01/28 19:59:52;;;;;;;7.55;3.65;;;;;;;1.78;79.16;100791.47;3295738;83;21007;-73
2022/01/28 20:04:43;;;;;;;6.67;3.72;;;;;;;1.79;79.15;100804.78;3380262;83;26965;-74
2022/01/28 20:09:34;;;;;;;5.67;3.55;;;;;;;1.79;78.95;100818.88;3371977;83;21061;-73
2022/01/28 20:14:25;;;;;;;11.08;5.03;;;;;;;1.78;78.98;100842.73;3298662;83;21670;-73
2022/01/28 20:19:16;;;;;;;4.90;2.98;;;;;;;1.76;78.78;100853.73;3325542;83;21082;-74
2022/01/28 20:24:07;;;;;;;6.65;3.55;;;;;;;1.75;78.82;100858.36;3344142;83;20958;-73
2022/01/28 20:28:58;;;;;;;15.75;7.90;;;;;;;1.70;78.88;100865.81;3370953;83;21002;-74
2022/01/28 20:33:49;;;;;;;6.42;3.15;;;;;;;1.64;79.07;100865.45;3367994;83;21014;-74
2022/01/28 20:38:41;;;;;;;6.53;2.77;;;;;;;1.56;78.96;100870.55;3293231;83;21468;-74
2022/01/28 20:43:32;;;;;;;5.47;3.40;;;;;;;1.51;79.01;100873.74;3303028;83;21019;-73
2022/01/28 20:48:23;;;;;;;6.47;2.83;;;;;;;1.49;79.00;100885.59;3289545;83;26593;-74
2022/01/28 20:53:18;;;;;;;4.72;2.65;;;;;;;1.48;79.07;100894.06;3344196;83;21102;-73
2022/01/28 20:58:07;;;;;;;4.10;2.65;;;;;;;1.47;78.91;100911.94;3325555;83;22181;-73
2022/01/28 21:02:58;;;;;;;5.28;3.35;;;;;;;1.42;78.94;100915.51;3325702;83;21041;-73
2022/01/28 21:07:49;;;;;;;6.05;3.05;;;;;;;1.41;79.00;100932.07;3307646;83;21094;-73
2022/01/28 21:12:41;;;;;;;3.70;2.40;;;;;;;1.41;78.98;100938.07;3343473;83;20944;-73
2022/01/28 21:17:32;;;;;;;4.12;2.52;;;;;;;1.42;78.86;100950.09;3300797;83;21495;-73
2022/01/28 21:22:25;;;;;;;7.37;3.37;;;;;;;1.40;78.65;100961.95;3331705;83;29357;-73
2022/01/28 21:27:16;;;;;;;4.62;3.30;;;;;;;1.39;78.79;100968.25;3354700;83;21006;-73
2022/01/28 21:32:07;;;;;;;6.17;2.40;;;;;;;1.32;78.54;100973.41;3291555;83;21047;-73
2022/01/28 21:36:58;;;;;;;4.75;2.17;;;;;;;1.24;78.56;100974.66;3389866;83;21006;-72
2022/01/28 21:41:49;;;;;;;6.47;2.52;;;;;;;1.17;78.54;100987.91;3360192;83;27033;-74
2022/01/28 21:46:40;;;;;;;3.90;2.12;;;;;;;1.06;78.64;101003.50;3324377;83;21488;-74
2022/01/28 21:51:31;;;;;;;6.30;2.72;;;;;;;0.95;78.70;101016.07;3295764;83;20973;-73
2022/01/28 21:56:22;;;;;;;8.53;3.15;;;;;;;0.85;78.84;101025.26;3334183;83;21005;-73
2022/01/28 22:01:13;;;;;;;7.58;2.90;;;;;;;0.76;78.82;101029.41;3337100;83;27095;-73
2022/01/28 22:06:04;;;;;;;5.00;2.67;;;;;;;0.66;78.89;101043.34;3344174;83;26694;-73
2022/01/28 22:10:55;;;;;;;4.58;3.70;;;;;;;0.59;78.85;101043.74;3311664;83;28114;-73
2022/01/28 22:15:46;;;;;;;8.05;2.67;;;;;;;0.53;78.89;101053.58;3368737;83;21689;-73
2022/01/28 22:20:37;;;;;;;7.75;3.35;;;;;;;0.48;79.08;101058.80;3370344;83;21412;-73
2022/01/28 22:25:28;;;;;;;4.28;2.65;;;;;;;0.42;79.05;101063.55;3385838;83;27886;-73
2022/01/28 22:30:19;;;;;;;6.58;2.62;;;;;;;0.33;79.09;101064.72;3319732;83;21235;-73
2022/01/28 22:35:12;;;;;;;4.45;1.85;;;;;;;0.30;79.25;101074.74;3318228;83;21060;-72
2022/01/28 22:40:06;;;;;;;5.05;2.12;;;;;;;0.27;79.24;101078.41;3324844;83;20987;-72
2022/01/28 22:44:57;;;;;;;5.67;2.75;;;;;;;0.24;79.40;101074.77;3323279;83;20982;-72
2022/01/28 22:49:48;;;;;;;5.03;2.37;;;;;;;0.19;79.31;101075.73;3295485;83;26581;-73
2022/01/28 22:54:39;;;;;;;5.00;2.62;;;;;;;0.13;79.36;101072.80;3343524;83;21073;-73
2022/01/28 22:59:30;;;;;;;10.90;2.40;;;;;;;0.09;79.34;101068.25;3324544;83;22370;-73
2022/01/28 23:04:21;;;;;;;6.08;2.50;;;;;;;0.03;79.36;101065.31;3344446;83;20995;-73
2022/01/28 23:09:13;;;;;;;5.25;2.42;;;;;;;-0.02;79.37;101058.23;3318752;83;21013;-73
2022/01/28 23:14:04;;;;;;;6.87;2.58;;;;;;;-0.05;79.03;101063.14;3267727;83;21303;-73
2022/01/28 23:18:55;;;;;;;6.17;2.55;;;;;;;-0.09;79.27;101068.84;3313030;83;20994;-73
2022/01/28 23:23:47;;;;;;;8.33;2.52;;;;;;;-0.13;79.23;101069.41;3297991;83;20995;-73
2022/01/28 23:28:38;;;;;;;6.17;2.15;;;;;;;-0.19;79.19;101070.30;3355858;83;20968;-74
2022/01/28 23:33:30;;;;;;;4.78;2.37;;;;;;;-0.24;79.15;101080.61;3313365;83;26006;-73
2022/01/28 23:38:21;;;;;;;3.70;2.40;;;;;;;-0.27;79.30;101080.03;3320399;83;21002;-73
2022/01/28 23:43:12;;;;;;;3.83;1.65;;;;;;;-0.29;79.19;101080.69;3347002;83;26961;-74
2022/01/28 23:48:03;;;;;;;6.20;2.10;;;;;;;-0.33;79.21;101085.11;3351702;83;21417;-73
2022/01/28 23:52:54;;;;;;;8.90;2.37;;;;;;;-0.35;79.19;101109.69;3319142;83;20991;-73
2022/01/28 23:57:45;;;;;;;5.15;1.90;;;;;;;-0.37;79.10;101106.14;3315041;83;24813;-74
